Time;durP1;ratioP1;P1;durP2;ratioP2;P2;SDS_P1;SDS_P2;PMS_P1;PMS_P2;Temp;Humidity;BMP_temperature;BMP_pressure;BME280_temperature;BME280_humidity;BME280_pressure;Samples;Min_cycle;Max_cycle;Signal;HPM_P1;HPM_P2
2021/05/13 00:01:13;;;;;;;3.10;2.30;;;;;;;;;;5114220;28;20451;-60
2021/05/13 00:03:40;;;;;;;4.23;2.97;;;;;;;;;;5114325;28;20448;-59
2021/05/13 00:06:07;;;;;;;4.33;2.87;;;;;;;;;;5114757;28;20446;-60
2021/05/13 00:08:34;;;;;;;4.67;2.70;;;;;;;;;;5114070;28;20573;-60
2021/05/13 00:11:05;;;;;;;4.83;2.40;;;;;;;;;;5114448;28;20441;-60
2021/05/13 00:13:32;;;;;;;2.87;2.40;;;;;;;;;;5114281;28;20441;-61
2021/05/13 00:15:59;;;;;;;10.73;2.23;;;;;;;;;;5113821;28;21022;-60
2021/05/13 00:18:26;;;;;;;4.30;2.97;;;;;;;;;;5114310;28;20441;-61
2021/05/13 00:20:53;;;;;;;4.63;2.33;;;;;;;;;;5113944;28;20939;-61
2021/05/13 00:23:20;;;;;;;6.07;3.00;;;;;;;;;;5115614;28;20445;-59
2021/05/13 00:25:49;;;;;;;5.93;2.60;;;;;;;;;;5118314;28;20820;-60
2021/05/13 00:28:15;;;;;;;3.93;2.60;;;;;;;;;;5118399;28;20587;-60
2021/05/13 00:30:42;;;;;;;5.53;2.60;;;;;;;;;;5118149;28;20445;-60
2021/05/13 00:33:09;;;;;;;3.50;2.30;;;;;;;;;;5118219;28;20441;-60
2021/05/13 00:35:36;;;;;;;4.57;2.77;;;;;;;;;;5117977;28;21042;-60
2021/05/13 00:38:02;;;;;;;4.77;2.50;;;;;;;;;;5118085;28;20437;-60
2021/05/13 00:40:29;;;;;;;3.33;3.03;;;;;;;;;;5118201;28;20445;-61
2021/05/13 00:42:57;;;;;;;4.93;3.70;;;;;;;;;;5118046;28;20442;-61
2021/05/13 00:45:24;;;;;;;4.63;3.23;;;;;;;;;;5117921;28;20459;-60
2021/05/13 00:48:03;;;;;;;4.60;3.30;;;;;;;;;;5117929;28;20825;-60
2021/05/13 00:50:31;;;;;;;4.90;3.23;;;;;;;;;;5117696;28;20470;-60
2021/05/13 00:52:58;;;;;;;4.70;3.00;;;;;;;;;;5117773;28;20821;-60
2021/05/13 00:55:25;;;;;;;5.93;3.50;;;;;;;;;;5117555;28;20463;-60
2021/05/13 00:57:54;;;;;;;5.47;3.50;;;;;;;;;;5117119;28;20495;-61
2021/05/13 01:03:12;;;;;;;5.67;4.00;;;;;;;;;;5096320;28;20525;-61
2021/05/13 01:05:39;;;;;;;5.10;3.30;;;;;;;;;;5117236;28;20521;-61
2021/05/13 01:08:06;;;;;;;4.93;2.87;;;;;;;;;;5116913;28;20577;-60
2021/05/13 01:10:34;;;;;;;5.40;3.30;;;;;;;;;;5116914;28;20502;-60
2021/05/13 01:13:03;;;;;;;3.30;2.80;;;;;;;;;;5116938;28;20952;-60
2021/05/13 01:15:41;;;;;;;6.07;3.20;;;;;;;;;;5117064;28;20472;-60
2021/05/13 01:18:14;;;;;;;7.20;3.57;;;;;;;;;;5121199;28;20520;-60
2021/05/13 01:20:41;;;;;;;5.17;3.57;;;;;;;;;;5120943;28;20919;-60
2021/05/13 01:23:11;;;;;;;5.60;3.37;;;;;;;;;;5123516;28;20437;-61
2021/05/13 01:25:43;;;;;;;6.97;4.17;;;;;;;;;;5123621;28;20466;-61
2021/05/13 01:28:09;;;;;;;5.23;3.53;;;;;;;;;;5121587;28;20533;-61
2021/05/13 01:30:36;;;;;;;6.80;3.87;;;;;;;;;;5124132;28;20460;-61
2021/05/13 01:33:03;;;;;;;4.73;3.53;;;;;;;;;;5125075;28;20440;-61
2021/05/13 01:35:30;;;;;;;7.30;4.20;;;;;;;;;;5123825;28;20461;-60
2021/05/13 01:38:04;;;;;;;4.10;2.80;;;;;;;;;;5125272;28;20441;-60
2021/05/13 01:40:32;;;;;;;9.93;4.00;;;;;;;;;;5123862;28;20433;-61
2021/05/13 01:42:59;;;;;;;3.30;2.80;;;;;;;;;;5121408;28;20438;-61
2021/05/13 01:45:25;;;;;;;3.97;3.50;;;;;;;;;;5123082;28;20462;-60
2021/05/13 01:47:52;;;;;;;8.73;2.90;;;;;;;;;;5123809;28;20457;-60
2021/05/13 01:50:19;;;;;;;4.73;3.60;;;;;;;;;;5124852;28;20476;-60
2021/05/13 01:52:46;;;;;;;5.40;3.10;;;;;;;;;;5125944;28;20503;-60
2021/05/13 01:55:13;;;;;;;6.67;2.80;;;;;;;;;;5124061;28;20483;-61
2021/05/13 01:57:41;;;;;;;4.00;2.93;;;;;;;;;;5126432;28;20445;-60
2021/05/13 02:00:08;;;;;;;3.80;3.30;;;;;;;;;;5123230;28;20437;-61
2021/05/13 02:02:35;;;;;;;3.90;3.20;;;;;;;;;;5120222;28;20522;-60
2021/05/13 02:05:02;;;;;;;3.73;3.30;;;;;;;;;;5119281;28;20457;-60
2021/05/13 02:07:29;;;;;;;4.03;3.17;;;;;;;;;;5117576;28;20523;-61
2021/05/13 02:09:56;;;;;;;6.23;3.60;;;;;;;;;;5118177;28;20486;-60
2021/05/13 02:12:22;;;;;;;5.13;3.30;;;;;;;;;;5123593;28;20466;-61
2021/05/13 02:14:50;;;;;;;8.03;3.47;;;;;;;;;;5129405;28;20470;-60
2021/05/13 02:17:17;;;;;;;3.57;3.20;;;;;;;;;;5122975;28;20441;-60
2021/05/13 02:19:43;;;;;;;6.83;4.20;;;;;;;;;;5123412;28;20452;-61
2021/05/13 02:22:10;;;;;;;4.50;3.37;;;;;;;;;;5119219;28;20445;-61
2021/05/13 02:24:37;;;;;;;5.57;3.07;;;;;;;;;;5117681;28;20464;-62
2021/05/13 02:27:04;;;;;;;5.80;3.10;;;;;;;;;;5119702;28;20502;-60
2021/05/13 02:29:31;;;;;;;5.57;3.70;;;;;;;;;;5119789;28;20473;-60
2021/05/13 02:31:58;;;;;;;7.00;3.67;;;;;;;;;;5117663;28;20536;-60
2021/05/13 02:34:25;;;;;;;6.70;3.20;;;;;;;;;;5116883;28;20869;-61
2021/05/13 02:36:52;;;;;;;5.40;3.20;;;;;;;;;;5115710;28;20458;-60
2021/05/13 02:39:19;;;;;;;7.20;3.70;;;;;;;;;;5116047;28;20464;-61
2021/05/13 02:41:45;;;;;;;4.27;3.00;;;;;;;;;;5115936;28;20442;-61
2021/05/13 02:44:12;;;;;;;7.50;3.60;;;;;;;;;;5115316;28;20974;-60
2021/05/13 02:46:39;;;;;;;5.30;3.90;;;;;;;;;;5114331;28;20449;-61
2021/05/13 02:49:06;;;;;;;4.97;3.20;;;;;;;;;;5115161;28;20473;-61
2021/05/13 02:51:33;;;;;;;7.53;3.30;;;;;;;;;;5114905;28;20997;-60
2021/05/13 02:54:00;;;;;;;7.27;4.00;;;;;;;;;;5115236;28;20442;-60
2021/05/13 02:56:27;;;;;;;5.30;3.77;;;;;;;;;;5115019;28;20444;-62
2021/05/13 02:58:53;;;;;;;6.40;3.40;;;;;;;;;;5115168;28;20442;-61
2021/05/13 03:01:25;;;;;;;10.90;3.50;;;;;;;;;;5114670;28;20451;-61
2021/05/13 03:03:52;;;;;;;5.10;3.20;;;;;;;;;;5114898;28;20429;-61
2021/05/13 03:06:20;;;;;;;6.77;4.27;;;;;;;;;;5104539;22;20560;-54
2021/05/13 03:08:49;;;;;;;7.00;4.10;;;;;;;;;;5074013;28;20479;-55
2021/05/13 03:11:16;;;;;;;6.40;3.63;;;;;;;;;;5074163;28;20447;-56
2021/05/13 03:13:44;;;;;;;6.10;3.90;;;;;;;;;;5073735;28;20519;-55
2021/05/13 03:16:11;;;;;;;5.60;3.80;;;;;;;;;;5073920;28;20493;-56
2021/05/13 03:18:37;;;;;;;6.30;3.60;;;;;;;;;;5074041;28;20812;-55
2021/05/13 03:21:06;;;;;;;5.30;3.50;;;;;;;;;;5073544;28;20473;-56
2021/05/13 03:23:42;;;;;;;6.83;3.30;;;;;;;;;;5074045;28;20541;-55
2021/05/13 03:26:09;;;;;;;5.17;3.53;;;;;;;;;;5073826;28;20502;-56
2021/05/13 03:28:36;;;;;;;4.80;3.67;;;;;;;;;;5073380;28;21029;-57
2021/05/13 03:31:02;;;;;;;5.33;3.23;;;;;;;;;;5074182;28;20448;-57
2021/05/13 03:33:29;;;;;;;6.20;3.57;;;;;;;;;;5073905;28;20813;-56
2021/05/13 03:35:56;;;;;;;7.50;3.73;;;;;;;;;;5073507;28;20471;-57
2021/05/13 03:38:23;;;;;;;6.10;3.40;;;;;;;;;;5073595;28;20444;-56
2021/05/13 03:40:50;;;;;;;8.60;4.17;;;;;;;;;;5073558;28;20443;-56
2021/05/13 03:43:17;;;;;;;9.20;3.80;;;;;;;;;;5073310;28;20958;-56
2021/05/13 03:45:44;;;;;;;8.20;3.57;;;;;;;;;;5073447;28;20467;-57
2021/05/13 03:48:11;;;;;;;7.87;4.27;;;;;;;;;;5073397;28;20861;-56
2021/05/13 03:50:38;;;;;;;6.73;3.87;;;;;;;;;;5073642;28;20451;-57
2021/05/13 03:53:06;;;;;;;6.73;4.00;;;;;;;;;;5073425;28;20439;-57
2021/05/13 03:55:33;;;;;;;5.93;3.53;;;;;;;;;;5073326;28;20467;-56
2021/05/13 03:58:01;;;;;;;8.00;3.20;;;;;;;;;;5073820;28;20450;-55
2021/05/13 04:00:32;;;;;;;6.00;3.43;;;;;;;;;;5073387;28;20493;-54
2021/05/13 04:02:59;;;;;;;6.88;3.53;;;;;;;;;;5073011;28;20436;-57
2021/05/13 04:08:07;;;;;;;9.88;4.13;;;;;;;;;;5112167;27;20544;-57
2021/05/13 04:10:34;;;;;;;6.17;3.57;;;;;;;;;;5111297;28;20203;-57
2021/05/13 04:13:03;;;;;;;7.60;3.50;;;;;;;;;;5111201;28;20437;-59
2021/05/13 04:15:30;;;;;;;7.27;4.20;;;;;;;;;;5111221;28;20469;-57
2021/05/13 04:17:57;;;;;;;9.93;3.87;;;;;;;;;;5110814;28;20442;-57
2021/05/13 04:20:24;;;;;;;6.93;3.53;;;;;;;;;;5110819;28;20815;-57
2021/05/13 04:22:50;;;;;;;10.52;3.78;;;;;;;;;;5111092;28;20442;-57
2021/05/13 04:25:18;;;;;;;11.47;3.20;;;;;;;;;;5110918;28;20220;-57
2021/05/13 04:27:46;;;;;;;6.83;4.17;;;;;;;;;;5110549;28;20480;-57
2021/05/13 04:30:13;;;;;;;8.77;4.40;;;;;;;;;;5110850;28;20789;-57
2021/05/13 04:32:40;;;;;;;5.20;3.70;;;;;;;;;;5110753;28;20446;-57
2021/05/13 04:35:08;;;;;;;6.97;3.70;;;;;;;;;;5110624;28;20465;-57
2021/05/13 04:37:34;;;;;;;8.37;4.43;;;;;;;;;;5110778;28;20442;-57
2021/05/13 04:40:01;;;;;;;4.03;3.63;;;;;;;;;;5110637;28;20495;-57
2021/05/13 04:42:29;;;;;;;6.50;3.90;;;;;;;;;;5110579;28;20441;-57
2021/05/13 04:44:57;;;;;;;6.90;4.13;;;;;;;;;;5110584;28;20519;-57
2021/05/13 04:47:26;;;;;;;7.07;4.30;;;;;;;;;;5110050;28;21113;-57
2021/05/13 04:49:54;;;;;;;9.47;4.37;;;;;;;;;;5110692;28;20544;-57
2021/05/13 04:52:22;;;;;;;4.63;4.10;;;;;;;;;;5110409;28;20449;-57
2021/05/13 04:54:49;;;;;;;11.23;5.10;;;;;;;;;;5110441;28;20469;-57
2021/05/13 04:57:17;;;;;;;8.90;4.50;;;;;;;;;;5110363;28;20809;-58
2021/05/13 04:59:45;;;;;;;8.37;4.13;;;;;;;;;;5110114;28;20813;-57
2021/05/13 05:02:12;;;;;;;7.40;4.10;;;;;;;;;;5109801;28;20814;-57
2021/05/13 05:04:38;;;;;;;7.30;3.90;;;;;;;;;;5110096;28;20470;-57
2021/05/13 05:07:05;;;;;;;4.40;3.70;;;;;;;;;;5109632;28;20488;-57
2021/05/13 05:09:32;;;;;;;6.40;3.93;;;;;;;;;;5110068;28;20441;-57
2021/05/13 05:11:59;;;;;;;6.60;4.00;;;;;;;;;;5110044;28;20794;-57
2021/05/13 05:14:26;;;;;;;8.27;3.73;;;;;;;;;;5109841;28;20454;-57
2021/05/13 05:16:54;;;;;;;6.00;3.80;;;;;;;;;;5109868;28;20437;-57
2021/05/13 05:19:21;;;;;;;6.70;4.17;;;;;;;;;;5096657;28;20446;-57
2021/05/13 05:21:47;;;;;;;4.90;3.30;;;;;;;;;;5095912;28;20812;-57
2021/05/13 05:24:14;;;;;;;7.20;3.93;;;;;;;;;;5096144;28;20801;-56
2021/05/13 05:26:42;;;;;;;8.70;3.37;;;;;;;;;;5095112;28;20961;-57
2021/05/13 05:29:08;;;;;;;6.70;3.40;;;;;;;;;;5096196;28;20480;-57
2021/05/13 05:31:35;;;;;;;7.00;3.43;;;;;;;;;;5096400;28;20477;-57
2021/05/13 05:34:03;;;;;;;6.03;3.80;;;;;;;;;;5096272;28;20473;-56
2021/05/13 05:36:30;;;;;;;7.20;3.30;;;;;;;;;;5095906;28;20575;-57
2021/05/13 05:38:58;;;;;;;5.10;3.03;;;;;;;;;;5095871;28;20451;-57
2021/05/13 05:41:25;;;;;;;5.80;3.70;;;;;;;;;;5095831;28;20447;-57
2021/05/13 05:43:52;;;;;;;10.00;3.53;;;;;;;;;;5097850;28;20438;-57
2021/05/13 05:46:19;;;;;;;5.37;3.30;;;;;;;;;;5096690;28;20475;-57
2021/05/13 05:48:45;;;;;;;4.93;3.17;;;;;;;;;;5096323;28;20447;-56
2021/05/13 05:51:13;;;;;;;6.33;3.23;;;;;;;;;;5095974;28;20442;-57
2021/05/13 05:53:40;;;;;;;6.67;3.40;;;;;;;;;;5095501;28;20447;-57
2021/05/13 05:56:07;;;;;;;6.20;3.50;;;;;;;;;;5095614;28;20573;-58
2021/05/13 05:58:34;;;;;;;7.00;3.27;;;;;;;;;;5095530;28;20459;-59
2021/05/13 06:01:00;;;;;;;7.23;3.63;;;;;;;;;;5095255;28;20816;-60
2021/05/13 06:03:27;;;;;;;6.20;2.90;;;;;;;;;;5095150;28;20447;-59
2021/05/13 06:05:54;;;;;;;6.33;2.83;;;;;;;;;;5095247;28;20473;-59
2021/05/13 06:08:21;;;;;;;5.47;2.90;;;;;;;;;;5095434;28;20440;-59
2021/05/13 06:10:48;;;;;;;6.03;2.93;;;;;;;;;;5095018;28;20443;-59
2021/05/13 06:13:15;;;;;;;7.50;2.80;;;;;;;;;;5095669;28;20438;-59
2021/05/13 06:15:42;;;;;;;5.47;2.70;;;;;;;;;;5095543;28;20463;-59
2021/05/13 06:18:08;;;;;;;5.00;2.77;;;;;;;;;;5094925;28;20505;-59
2021/05/13 06:20:36;;;;;;;7.47;3.10;;;;;;;;;;5095167;28;20450;-58
2021/05/13 06:23:03;;;;;;;5.60;3.03;;;;;;;;;;5095240;28;20938;-59
2021/05/13 06:25:31;;;;;;;5.60;3.37;;;;;;;;;;5095088;28;20475;-59
2021/05/13 06:27:58;;;;;;;7.80;3.00;;;;;;;;;;5094911;28;20862;-59
2021/05/13 06:30:25;;;;;;;3.20;2.60;;;;;;;;;;5093967;28;20453;-59
2021/05/13 06:32:52;;;;;;;3.07;2.77;;;;;;;;;;5095345;28;20552;-59
2021/05/13 06:35:19;;;;;;;5.00;2.90;;;;;;;;;;5095780;28;20464;-59
2021/05/13 06:37:46;;;;;;;3.13;2.80;;;;;;;;;;5094693;28;20441;-60
2021/05/13 06:40:14;;;;;;;5.03;2.50;;;;;;;;;;5094696;28;20936;-59
2021/05/13 06:42:41;;;;;;;3.57;2.40;;;;;;;;;;5094846;28;20449;-59
2021/05/13 06:45:09;;;;;;;2.13;1.60;;;;;;;;;;5094713;28;20465;-59
2021/05/13 06:47:38;;;;;;;3.00;2.23;;;;;;;;;;5094508;28;20503;-59
2021/05/13 06:50:06;;;;;;;5.10;2.33;;;;;;;;;;5094724;28;20481;-59
2021/05/13 06:52:32;;;;;;;7.40;3.50;;;;;;;;;;5094362;28;20446;-59
2021/05/13 06:54:59;;;;;;;8.20;2.73;;;;;;;;;;5094088;28;20476;-59
2021/05/13 06:57:26;;;;;;;6.30;2.70;;;;;;;;;;5095137;28;20434;-59
2021/05/13 06:59:53;;;;;;;3.67;2.60;;;;;;;;;;5094392;28;20820;-60
2021/05/13 07:02:21;;;;;;;3.63;2.40;;;;;;;;;;5094379;28;20446;-60
2021/05/13 07:04:48;;;;;;;6.37;3.20;;;;;;;;;;5093784;28;21016;-60
2021/05/13 07:07:15;;;;;;;8.00;2.93;;;;;;;;;;5093518;28;20481;-60
2021/05/13 07:09:43;;;;;;;4.30;2.70;;;;;;;;;;5094197;28;20512;-59
2021/05/13 07:12:09;;;;;;;4.40;2.97;;;;;;;;;;5094213;28;20469;-60
2021/05/13 07:14:36;;;;;;;4.57;2.80;;;;;;;;;;5094149;28;20546;-59
2021/05/13 07:17:04;;;;;;;5.97;2.77;;;;;;;;;;5093779;28;20442;-59
2021/05/13 07:19:31;;;;;;;5.93;3.00;;;;;;;;;;5093874;28;20459;-58
2021/05/13 07:21:57;;;;;;;5.60;2.70;;;;;;;;;;5093929;28;20446;-58
2021/05/13 07:24:24;;;;;;;3.00;2.00;;;;;;;;;;5093727;28;20861;-58
2021/05/13 07:26:51;;;;;;;4.70;2.23;;;;;;;;;;5093497;28;20988;-58
2021/05/13 07:29:17;;;;;;;5.10;2.50;;;;;;;;;;5093763;28;20823;-59
2021/05/13 07:31:44;;;;;;;4.20;2.30;;;;;;;;;;5093269;28;20446;-58
2021/05/13 07:34:12;;;;;;;4.67;2.17;;;;;;;;;;5093421;28;20810;-58
2021/05/13 07:36:39;;;;;;;2.97;2.47;;;;;;;;;;5093650;28;20458;-57
2021/05/13 07:39:06;;;;;;;4.43;1.90;;;;;;;;;;5093786;28;20438;-59
2021/05/13 07:41:33;;;;;;;3.43;2.20;;;;;;;;;;5093478;28;20446;-58
2021/05/13 07:44:00;;;;;;;3.10;2.10;;;;;;;;;;5093719;28;20442;-57
2021/05/13 07:46:33;;;;;;;3.97;2.43;;;;;;;;;;5093939;28;20539;-59
2021/05/13 07:49:00;;;;;;;2.80;2.00;;;;;;;;;;5093680;28;20797;-60
2021/05/13 07:51:28;;;;;;;4.10;2.23;;;;;;;;;;5093245;28;20486;-60
2021/05/13 07:53:54;;;;;;;3.07;1.87;;;;;;;;;;5093428;28;20445;-59
2021/05/13 07:56:21;;;;;;;4.57;2.40;;;;;;;;;;5093181;28;20474;-60
2021/05/13 07:58:48;;;;;;;5.33;2.63;;;;;;;;;;5093034;28;20511;-59
2021/05/13 08:01:15;;;;;;;3.80;2.30;;;;;;;;;;5093255;28;20552;-60
2021/05/13 08:03:41;;;;;;;4.40;2.00;;;;;;;;;;5093414;28;20459;-60
2021/05/13 08:06:08;;;;;;;4.97;2.03;;;;;;;;;;5093360;28;20481;-59
2021/05/13 08:08:36;;;;;;;3.77;1.87;;;;;;;;;;5093647;28;20446;-60
2021/05/13 08:11:02;;;;;;;2.90;1.90;;;;;;;;;;5093386;28;20444;-61
2021/05/13 08:13:31;;;;;;;3.83;1.80;;;;;;;;;;5093652;28;20444;-59
2021/05/13 08:15:57;;;;;;;3.40;1.80;;;;;;;;;;5093180;28;20476;-60
2021/05/13 08:18:24;;;;;;;4.00;1.67;;;;;;;;;;5093433;28;20586;-60
2021/05/13 08:20:52;;;;;;;2.67;1.57;;;;;;;;;;5093431;28;20456;-59
2021/05/13 08:23:18;;;;;;;3.93;1.53;;;;;;;;;;5093216;28;20459;-61
2021/05/13 08:25:46;;;;;;;2.50;1.30;;;;;;;;;;5093082;28;20463;-60
2021/05/13 08:28:13;;;;;;;2.40;1.20;;;;;;;;;;5092992;28;20539;-60
2021/05/13 08:30:40;;;;;;;2.53;1.30;;;;;;;;;;5092886;28;20446;-60
2021/05/13 08:33:06;;;;;;;2.93;1.17;;;;;;;;;;5092742;28;20457;-60
2021/05/13 08:35:33;;;;;;;2.60;1.40;;;;;;;;;;5092483;28;20794;-61
2021/05/13 08:38:00;;;;;;;3.00;1.53;;;;;;;;;;5092986;28;20441;-59
2021/05/13 08:40:27;;;;;;;2.97;1.40;;;;;;;;;;5092317;28;20567;-59
2021/05/13 08:42:54;;;;;;;2.50;1.23;;;;;;;;;;5092371;28;20442;-60
2021/05/13 08:45:21;;;;;;;3.10;1.10;;;;;;;;;;5092314;28;20826;-60
2021/05/13 08:47:48;;;;;;;2.40;1.00;;;;;;;;;;5092264;28;20500;-61
2021/05/13 08:50:15;;;;;;;1.60;0.87;;;;;;;;;;5092768;28;20451;-60
2021/05/13 08:52:42;;;;;;;1.47;0.80;;;;;;;;;;5092981;28;21013;-60
2021/05/13 08:55:09;;;;;;;4.73;0.90;;;;;;;;;;5096292;28;20476;-60
2021/05/13 08:57:36;;;;;;;2.00;1.40;;;;;;;;;;5096236;28;20449;-60
2021/05/13 09:00:05;;;;;;;1.93;1.03;;;;;;;;;;5096155;28;20441;-60
2021/05/13 09:02:32;;;;;;;2.13;0.90;;;;;;;;;;5096765;28;20441;-61
2021/05/13 09:05:00;;;;;;;2.10;1.07;;;;;;;;;;5123359;22;20483;-62
2021/05/13 09:07:28;;;;;;;2.20;1.07;;;;;;;;;;5036048;28;20483;-63
2021/05/13 09:10:03;;;;;;;2.30;0.97;;;;;;;;;;5036235;28;20456;-62
2021/05/13 09:12:31;;;;;;;2.93;1.10;;;;;;;;;;5036075;28;20455;-63
2021/05/13 09:14:58;;;;;;;2.83;1.07;;;;;;;;;;5035840;28;20448;-63
2021/05/13 09:17:26;;;;;;;4.50;1.20;;;;;;;;;;5035923;28;20448;-62
2021/05/13 09:19:53;;;;;;;1.67;0.83;;;;;;;;;;5035833;28;20949;-62
2021/05/13 09:22:22;;;;;;;2.43;1.00;;;;;;;;;;5036080;28;20451;-62
2021/05/13 09:24:50;;;;;;;4.17;0.93;;;;;;;;;;5036172;28;20451;-62
2021/05/13 09:27:17;;;;;;;2.73;1.00;;;;;;;;;;5035886;28;20480;-63
2021/05/13 09:29:44;;;;;;;1.40;0.90;;;;;;;;;;5036964;28;20463;-62
2021/05/13 09:32:15;;;;;;;1.73;1.00;;;;;;;;;;5042226;28;20470;-62
2021/05/13 09:34:42;;;;;;;1.77;1.03;;;;;;;;;;5036654;28;20444;-63
2021/05/13 09:37:09;;;;;;;2.70;1.10;;;;;;;;;;5036116;28;20459;-63
2021/05/13 09:39:36;;;;;;;2.43;0.70;;;;;;;;;;5035701;28;20449;-62
2021/05/13 09:42:03;;;;;;;1.90;0.90;;;;;;;;;;5035852;28;20505;-63
2021/05/13 09:44:31;;;;;;;2.40;1.13;;;;;;;;;;5035549;28;20928;-63
2021/05/13 09:46:58;;;;;;;2.57;0.90;;;;;;;;;;5035301;28;20579;-63
2021/05/13 09:49:25;;;;;;;3.70;1.50;;;;;;;;;;5035209;28;20675;-62
2021/05/13 09:51:52;;;;;;;3.10;1.07;;;;;;;;;;5035116;28;20453;-63
2021/05/13 09:54:20;;;;;;;6.40;1.40;;;;;;;;;;5035397;28;20489;-62
2021/05/13 09:56:47;;;;;;;2.70;1.10;;;;;;;;;;5035320;28;20834;-62
2021/05/13 09:59:21;;;;;;;5.50;1.37;;;;;;;;;;5035711;28;20463;-62
2021/05/13 10:01:48;;;;;;;4.27;1.40;;;;;;;;;;5035368;28;20497;-63
2021/05/13 10:04:15;;;;;;;2.17;0.80;;;;;;;;;;5035633;28;20460;-63
2021/05/13 10:06:41;;;;;;;2.40;1.00;;;;;;;;;;5035091;28;20538;-61
2021/05/13 10:09:09;;;;;;;1.40;0.90;;;;;;;;;;5035199;28;20449;-61
2021/05/13 10:11:36;;;;;;;1.20;1.03;;;;;;;;;;5035239;28;20442;-62
2021/05/13 10:14:03;;;;;;;3.60;0.97;;;;;;;;;;5035252;28;20438;-63
2021/05/13 10:16:30;;;;;;;3.70;1.20;;;;;;;;;;5034942;28;20474;-61
2021/05/13 10:18:59;;;;;;;2.33;1.03;;;;;;;;;;5034515;28;20506;-62
2021/05/13 10:21:27;;;;;;;2.53;1.13;;;;;;;;;;5034845;28;20444;-61
2021/05/13 10:23:55;;;;;;;3.00;0.87;;;;;;;;;;5034526;28;20980;-62
2021/05/13 10:26:39;;;;;;;2.77;1.00;;;;;;;;;;5034885;28;20494;-62
2021/05/13 10:29:21;;;;;;;2.13;1.20;;;;;;;;;;5034638;28;21009;-61
2021/05/13 10:32:03;;;;;;;2.20;1.10;;;;;;;;;;5034207;28;20451;-62
2021/05/13 10:34:44;;;;;;;2.07;1.27;;;;;;;;;;5034767;28;20443;-62
2021/05/13 10:37:12;;;;;;;2.73;1.30;;;;;;;;;;5031398;28;20815;-62
2021/05/13 10:39:59;;;;;;;1.70;0.90;;;;;;;;;;5034280;28;20450;-62
2021/05/13 10:42:29;;;;;;;2.67;1.40;;;;;;;;;;5034245;28;20445;-63
2021/05/13 10:44:56;;;;;;;5.27;1.67;;;;;;;;;;5034331;28;20456;-63
2021/05/13 10:47:28;;;;;;;1.57;0.93;;;;;;;;;;5034539;28;20477;-62
2021/05/13 10:49:55;;;;;;;1.70;1.00;;;;;;;;;;5034415;28;20907;-61
2021/05/13 10:52:35;;;;;;;3.50;1.80;;;;;;;;;;5034484;28;20461;-59
2021/05/13 10:55:03;;;;;;;4.17;1.40;;;;;;;;;;5034943;28;20475;-63
2021/05/13 10:57:46;;;;;;;3.57;1.30;;;;;;;;;;5035305;28;20501;-61
2021/05/13 11:00:23;;;;;;;1.87;1.23;;;;;;;;;;5034929;28;20434;-61
2021/05/13 11:02:51;;;;;;;7.13;1.30;;;;;;;;;;5034878;28;20451;-61
2021/05/13 11:05:45;;;;;;;3.50;1.70;;;;;;;;;;5034862;28;20480;-63
2021/05/13 11:08:28;;;;;;;2.37;1.30;;;;;;;;;;5034832;28;20856;-61
2021/05/13 11:10:57;;;;;;;3.40;1.40;;;;;;;;;;5035502;28;20845;-62
2021/05/13 11:13:24;;;;;;;1.33;1.23;;;;;;;;;;5035211;28;20541;-62
2021/05/13 11:15:53;;;;;;;4.77;2.20;;;;;;;;;;5035110;28;20469;-62
2021/05/13 11:18:25;;;;;;;3.50;1.70;;;;;;;;;;5035352;28;20804;-61
2021/05/13 11:20:58;;;;;;;1.83;1.00;;;;;;;;;;5035782;28;20506;-62
2021/05/13 11:23:26;;;;;;;3.97;1.30;;;;;;;;;;5035600;28;20536;-61
2021/05/13 11:25:54;;;;;;;2.17;1.10;;;;;;;;;;5039106;28;20843;-61
2021/05/13 11:28:31;;;;;;;4.13;1.30;;;;;;;;;;5035861;28;20491;-62
2021/05/13 11:31:12;;;;;;;2.27;1.10;;;;;;;;;;5035023;28;20442;-62
2021/05/13 11:33:40;;;;;;;2.50;1.40;;;;;;;;;;5035015;28;20572;-62
2021/05/13 11:36:07;;;;;;;2.70;1.20;;;;;;;;;;5034167;28;20517;-62
2021/05/13 11:38:34;;;;;;;1.77;0.90;;;;;;;;;;5033229;28;20456;-61
2021/05/13 11:41:01;;;;;;;2.50;1.23;;;;;;;;;;5033804;28;20543;-63
2021/05/13 11:43:31;;;;;;;1.97;1.20;;;;;;;;;;5033661;28;20449;-63
2021/05/13 11:45:59;;;;;;;3.30;1.43;;;;;;;;;;5033575;28;20469;-63
2021/05/13 11:48:27;;;;;;;3.20;1.30;;;;;;;;;;5033323;28;20471;-62
2021/05/13 11:50:56;;;;;;;2.73;1.33;;;;;;;;;;5033550;28;20463;-63
2021/05/13 11:53:23;;;;;;;2.40;1.33;;;;;;;;;;5033666;28;20499;-63
2021/05/13 11:55:50;;;;;;;2.30;1.50;;;;;;;;;;5033488;28;20488;-62
2021/05/13 11:58:34;;;;;;;2.90;1.53;;;;;;;;;;5034176;28;20501;-62
2021/05/13 12:01:16;;;;;;;3.23;1.53;;;;;;;;;;5033535;28;20432;-62
2021/05/13 12:03:43;;;;;;;2.80;1.60;;;;;;;;;;5033417;28;20460;-61
2021/05/13 12:06:11;;;;;;;2.60;1.10;;;;;;;;;;5033047;28;20507;-62
2021/05/13 12:08:38;;;;;;;4.50;2.43;;;;;;;;;;5032882;28;20491;-63
2021/05/13 12:11:17;;;;;;;4.70;2.00;;;;;;;;;;5032912;28;20519;-61
2021/05/13 12:13:44;;;;;;;4.37;1.93;;;;;;;;;;5033404;28;20436;-63
2021/05/13 12:16:11;;;;;;;4.50;2.07;;;;;;;;;;5032843;28;20469;-61
2021/05/13 12:18:38;;;;;;;4.03;1.70;;;;;;;;;;5032882;28;20435;-62
2021/05/13 12:21:07;;;;;;;4.20;2.20;;;;;;;;;;5033157;28;20446;-63
2021/05/13 12:23:35;;;;;;;4.87;1.60;;;;;;;;;;5033315;28;20444;-62
2021/05/13 12:26:01;;;;;;;2.10;1.37;;;;;;;;;;5032971;28;20467;-62
2021/05/13 12:28:28;;;;;;;4.63;1.97;;;;;;;;;;5034363;28;20993;-63
2021/05/13 12:30:56;;;;;;;3.50;1.60;;;;;;;;;;5037204;28;20447;-62
2021/05/13 12:33:23;;;;;;;4.50;2.20;;;;;;;;;;5037026;28;20486;-62
2021/05/13 12:35:51;;;;;;;4.53;1.80;;;;;;;;;;5036677;28;20901;-62
2021/05/13 12:38:18;;;;;;;5.40;2.40;;;;;;;;;;5037154;28;20780;-63
2021/05/13 12:40:46;;;;;;;1.90;1.70;;;;;;;;;;5037011;28;20466;-63
2021/05/13 12:43:14;;;;;;;3.60;2.23;;;;;;;;;;5036808;28;20451;-63
2021/05/13 12:45:48;;;;;;;3.90;2.07;;;;;;;;;;5036742;28;20472;-64
2021/05/13 12:48:24;;;;;;;4.50;2.40;;;;;;;;;;5036448;28;20478;-63
2021/05/13 12:50:57;;;;;;;4.47;2.50;;;;;;;;;;5036467;28;20438;-63
2021/05/13 12:53:25;;;;;;;3.67;2.87;;;;;;;;;;5036244;28;20447;-62
2021/05/13 12:55:53;;;;;;;2.23;1.80;;;;;;;;;;5036401;28;20994;-62
2021/05/13 12:58:21;;;;;;;3.50;2.10;;;;;;;;;;5036589;28;20940;-62
2021/05/13 13:00:53;;;;;;;2.80;2.03;;;;;;;;;;5037487;28;20455;-62
2021/05/13 13:03:28;;;;;;;3.03;1.93;;;;;;;;;;5038093;28;20912;-61
2021/05/13 13:06:05;;;;;;;6.70;2.80;;;;;;;;;;5038113;28;20479;-62
2021/05/13 13:08:38;;;;;;;3.83;2.13;;;;;;;;;;5041813;28;21049;-62
2021/05/13 13:11:06;;;;;;;3.93;1.80;;;;;;;;;;5037742;28;20449;-63
2021/05/13 13:13:45;;;;;;;5.77;2.30;;;;;;;;;;5037765;28;20443;-63
2021/05/13 13:16:20;;;;;;;2.77;1.90;;;;;;;;;;5041360;28;20561;-61
2021/05/13 13:18:47;;;;;;;5.50;2.57;;;;;;;;;;5039414;28;20448;-63
2021/05/13 13:21:15;;;;;;;3.20;1.90;;;;;;;;;;5041251;28;20453;-63
2021/05/13 13:23:42;;;;;;;4.20;2.17;;;;;;;;;;5039828;28;20857;-62
2021/05/13 13:26:11;;;;;;;4.07;2.37;;;;;;;;;;5039102;28;20518;-61
2021/05/13 13:28:40;;;;;;;5.63;3.07;;;;;;;;;;5038557;28;20503;-61
2021/05/13 13:31:11;;;;;;;3.13;2.03;;;;;;;;;;5038822;28;20451;-61
2021/05/13 13:33:38;;;;;;;1.93;1.70;;;;;;;;;;5037328;28;20451;-62
2021/05/13 13:36:05;;;;;;;5.50;3.10;;;;;;;;;;5038512;28;20464;-63
2021/05/13 13:38:33;;;;;;;4.13;2.63;;;;;;;;;;5037365;28;20965;-62
2021/05/13 13:41:00;;;;;;;4.43;2.73;;;;;;;;;;5037950;28;20463;-61
2021/05/13 13:43:28;;;;;;;3.93;2.43;;;;;;;;;;5036938;28;20455;-62
2021/05/13 13:45:55;;;;;;;2.60;1.90;;;;;;;;;;5036952;28;20473;-62
2021/05/13 13:48:22;;;;;;;3.53;2.63;;;;;;;;;;5035649;28;20499;-62
2021/05/13 13:50:49;;;;;;;5.90;2.67;;;;;;;;;;5037039;28;20467;-62
2021/05/13 13:53:17;;;;;;;4.07;2.43;;;;;;;;;;5036934;28;20833;-62
2021/05/13 13:55:44;;;;;;;4.40;1.97;;;;;;;;;;5036596;28;20481;-62
2021/05/13 13:58:10;;;;;;;2.97;1.80;;;;;;;;;;5036219;28;20443;-62
2021/05/13 14:00:38;;;;;;;5.50;1.87;;;;;;;;;;5036013;28;20444;-62
2021/05/13 14:03:05;;;;;;;3.00;1.90;;;;;;;;;;5035832;28;20445;-62
2021/05/13 14:05:32;;;;;;;2.17;1.90;;;;;;;;;;5035397;28;20474;-62
2021/05/13 14:07:59;;;;;;;3.83;1.50;;;;;;;;;;5035551;28;20890;-61
2021/05/13 14:10:27;;;;;;;2.20;1.90;;;;;;;;;;5035399;28;20444;-62
2021/05/13 14:12:54;;;;;;;2.90;1.30;;;;;;;;;;5035583;28;20454;-62
2021/05/13 14:15:21;;;;;;;4.53;1.43;;;;;;;;;;5035221;28;20467;-61
2021/05/13 14:17:49;;;;;;;2.40;1.57;;;;;;;;;;5034797;28;20436;-62
2021/05/13 14:20:16;;;;;;;3.50;1.10;;;;;;;;;;5035052;28;20450;-61
2021/05/13 14:22:44;;;;;;;2.17;1.43;;;;;;;;;;5035261;28;20460;-63
2021/05/13 14:25:11;;;;;;;2.40;1.47;;;;;;;;;;5036285;28;20471;-62
2021/05/13 14:27:38;;;;;;;1.80;1.57;;;;;;;;;;5036083;28;20478;-62
2021/05/13 14:30:07;;;;;;;2.10;1.40;;;;;;;;;;5035735;28;20456;-63
2021/05/13 14:32:33;;;;;;;4.50;2.03;;;;;;;;;;5035761;28;20464;-63
2021/05/13 14:35:01;;;;;;;2.10;1.30;;;;;;;;;;5034862;28;20829;-63
2021/05/13 14:37:28;;;;;;;1.67;1.10;;;;;;;;;;5034803;28;20510;-63
2021/05/13 14:39:55;;;;;;;5.30;1.30;;;;;;;;;;5034763;28;20572;-62
2021/05/13 14:42:22;;;;;;;2.33;1.20;;;;;;;;;;5034885;28;20452;-61
2021/05/13 14:44:49;;;;;;;3.57;1.60;;;;;;;;;;5034717;28;20562;-63
2021/05/13 14:47:15;;;;;;;1.60;1.00;;;;;;;;;;5041227;28;20484;-62
2021/05/13 14:49:42;;;;;;;1.80;1.00;;;;;;;;;;5041296;28;20495;-62
2021/05/13 14:52:10;;;;;;;1.40;1.10;;;;;;;;;;5033988;28;20463;-60
2021/05/13 14:54:37;;;;;;;1.77;1.30;;;;;;;;;;5034293;28;20452;-59